createdAt,value
2023-01-12T00:01:30.994Z,7.10
2023-01-12T00:03:57.720Z,7.20
2023-01-12T00:06:25.392Z,7.10
2023-01-12T00:08:52.775Z,7.10
2023-01-12T00:11:20.411Z,7.10
2023-01-12T00:13:48.054Z,7.20
2023-01-12T00:16:43.518Z,7.20
2023-01-12T00:19:16.016Z,7.30
2023-01-12T00:22:10.596Z,7.20
2023-01-12T00:24:39.989Z,7.20
2023-01-12T00:27:09.141Z,7.10
2023-01-12T00:29:36.640Z,7.00
2023-01-12T00:32:05.177Z,7.00
2023-01-12T00:34:32.458Z,7.00
2023-01-12T00:37:02.506Z,7.00
2023-01-12T00:39:29.745Z,7.00
2023-01-12T00:42:15.461Z,7.00
2023-01-12T00:45:00.741Z,7.00
2023-01-12T00:47:27.471Z,6.90
2023-01-12T00:49:54.169Z,7.00
2023-01-12T00:52:30.494Z,7.00
2023-01-12T00:54:59.549Z,6.90
2023-01-12T00:57:26.716Z,6.90
2023-01-12T00:59:57.990Z,7.00
2023-01-12T01:02:25.421Z,6.90
2023-01-12T01:04:52.111Z,7.00
2023-01-12T01:07:21.327Z,7.00
2023-01-12T01:09:48.319Z,7.00
2023-01-12T01:12:15.039Z,7.00
2023-01-12T01:14:41.752Z,7.00
2023-01-12T01:17:08.367Z,7.00
2023-01-12T01:19:35.239Z,7.10
2023-01-12T01:22:01.909Z,7.10
2023-01-12T01:24:28.560Z,7.10
2023-01-12T01:26:55.245Z,7.20
2023-01-12T01:29:22.014Z,7.20
2023-01-12T01:31:48.660Z,7.20
2023-01-12T01:34:15.611Z,7.20
2023-01-12T01:36:42.631Z,7.30
2023-01-12T01:39:09.362Z,7.20
2023-01-12T01:41:36.004Z,7.20
2023-01-12T01:44:06.299Z,7.20
2023-01-12T01:46:49.916Z,7.30
2023-01-12T01:49:39.765Z,7.30
2023-01-12T01:52:14.001Z,7.30
2023-01-12T01:54:51.488Z,7.20
2023-01-12T01:57:18.620Z,7.20
2023-01-12T01:59:55.852Z,7.10
2023-01-12T02:02:25.441Z,7.00
2023-01-12T02:04:54.036Z,6.90
2023-01-12T02:07:20.772Z,6.90
2023-01-12T02:09:47.417Z,6.90
2023-01-12T02:12:33.093Z,6.90
2023-01-12T02:15:18.581Z,6.80
2023-01-12T02:18:03.926Z,6.80
2023-01-12T02:20:49.221Z,6.80
2023-01-12T02:23:41.051Z,6.80
2023-01-12T02:26:22.751Z,6.80
2023-01-12T02:29:19.485Z,6.80
2023-01-12T02:32:28.219Z,6.80
2023-01-12T02:35:00.127Z,6.80
2023-01-12T02:37:35.329Z,6.80
2023-01-12T02:40:29.334Z,6.80
2023-01-12T02:43:08.132Z,6.80
2023-01-12T02:45:52.660Z,6.90
2023-01-12T02:48:22.269Z,6.90
2023-01-12T02:51:07.629Z,6.90
2023-01-12T02:53:43.386Z,7.00
2023-01-12T02:56:11.490Z,7.00
2023-01-12T02:58:43.804Z,7.00
2023-01-12T03:01:11.903Z,7.00
2023-01-12T03:03:39.926Z,7.10
2023-01-12T03:06:08.536Z,7.10
2023-01-12T03:08:39.084Z,7.10
2023-01-12T03:11:17.729Z,7.10
2023-01-12T03:13:50.997Z,7.20
2023-01-12T03:16:28.899Z,7.20
2023-01-12T03:19:05.964Z,7.20
2023-01-12T03:21:38.444Z,7.20
2023-01-12T03:24:15.256Z,7.20
2023-01-12T03:26:46.281Z,7.20
2023-01-12T03:29:19.263Z,7.20
2023-01-12T03:31:46.505Z,7.30
2023-01-12T03:34:13.428Z,7.20
2023-01-12T03:36:51.517Z,7.30
2023-01-12T03:39:36.955Z,7.30
2023-01-12T03:42:37.375Z,7.30
2023-01-12T03:45:33.228Z,7.20
2023-01-12T03:48:24.736Z,7.40
2023-01-12T03:50:59.601Z,7.30
2023-01-12T03:53:28.041Z,7.30
2023-01-12T03:56:02.156Z,7.30
2023-01-12T03:58:28.972Z,7.30
2023-01-12T04:00:55.689Z,7.20
2023-01-12T04:03:24.491Z,7.20
2023-01-12T04:05:51.275Z,7.20
2023-01-12T04:08:17.915Z,7.20
2023-01-12T04:10:44.558Z,7.20
2023-01-12T04:13:11.298Z,7.20
2023-01-12T04:15:42.263Z,7.10
2023-01-12T04:18:10.417Z,7.20
2023-01-12T04:20:37.505Z,7.20
2023-01-12T04:23:04.704Z,7.20
2023-01-12T04:25:31.473Z,7.20
2023-01-12T04:28:08.989Z,7.20
2023-01-12T04:30:36.061Z,7.20
2023-01-12T04:33:07.806Z,7.20
2023-01-12T04:35:34.887Z,7.20
2023-01-12T04:38:08.516Z,7.20
2023-01-12T04:40:35.652Z,7.20
2023-01-12T04:43:07.957Z,7.20
2023-01-12T04:45:38.011Z,7.20
2023-01-12T04:48:10.456Z,7.20
2023-01-12T04:50:38.856Z,7.20
2023-01-12T04:53:07.880Z,7.20
2023-01-12T04:55:38.576Z,7.20
2023-01-12T04:58:05.365Z,7.20
2023-01-12T05:00:32.451Z,7.20
2023-01-12T05:03:02.055Z,7.20
2023-01-12T05:05:30.265Z,7.20
2023-01-12T05:08:19.437Z,7.20
2023-01-12T05:10:54.648Z,7.30
2023-01-12T05:13:22.529Z,7.30
2023-01-12T05:15:49.277Z,7.30
2023-01-12T05:18:15.941Z,7.30
2023-01-12T05:20:42.675Z,7.30
2023-01-12T05:23:09.360Z,7.30
2023-01-12T05:25:36.261Z,7.30
2023-01-12T05:28:03.253Z,7.30
2023-01-12T05:30:31.798Z,7.40
2023-01-12T05:32:59.321Z,7.40
2023-01-12T05:35:27.264Z,7.40
2023-01-12T05:37:57.299Z,7.40
2023-01-12T05:40:24.531Z,7.40
2023-01-12T05:43:10.427Z,7.40
2023-01-12T05:45:37.107Z,7.40
2023-01-12T05:48:04.017Z,7.50
2023-01-12T05:50:30.928Z,7.50
2023-01-12T05:53:10.316Z,7.50
2023-01-12T05:55:38.197Z,7.50
2023-01-12T05:58:05.020Z,7.60
2023-01-12T06:00:31.677Z,7.60
2023-01-12T06:02:58.333Z,7.60
2023-01-12T06:05:25.088Z,7.60
2023-01-12T06:07:51.677Z,7.60
2023-01-12T06:10:18.423Z,7.60
2023-01-12T06:13:03.570Z,7.60
2023-01-12T06:15:32.479Z,7.60
2023-01-12T06:17:59.116Z,7.50
2023-01-12T06:20:25.760Z,7.50
2023-01-12T06:22:52.544Z,7.60
2023-01-12T06:25:19.475Z,7.60
2023-01-12T06:27:46.132Z,7.50
2023-01-12T06:30:13.383Z,7.50
2023-01-12T06:32:41.678Z,7.50
2023-01-12T06:35:18.683Z,7.60
2023-01-12T06:37:46.507Z,7.50
2023-01-12T06:40:13.788Z,7.50
2023-01-12T06:42:42.035Z,7.50
2023-01-12T06:45:09.652Z,7.50
2023-01-12T06:47:47.238Z,7.50
2023-01-12T06:50:14.016Z,7.50
2023-01-12T06:52:40.702Z,7.50
2023-01-12T06:55:07.693Z,7.50
2023-01-12T06:57:36.949Z,7.50
2023-01-12T07:00:07.210Z,7.50
2023-01-12T07:02:34.170Z,7.50
2023-01-12T07:05:00.863Z,7.50
2023-01-12T07:07:27.764Z,7.40
2023-01-12T07:09:54.480Z,7.40
2023-01-12T07:12:21.183Z,7.40
2023-01-12T07:14:47.941Z,7.40
2023-01-12T07:17:14.662Z,7.40
2023-01-12T07:19:41.732Z,7.40
2023-01-12T07:22:08.576Z,7.40
2023-01-12T07:24:36.045Z,7.30
2023-01-12T07:27:02.755Z,7.30
2023-01-12T07:29:29.479Z,7.30
2023-01-12T07:31:56.281Z,7.20
2023-01-12T07:34:23.021Z,7.20
2023-01-12T07:36:50.831Z,7.20
2023-01-12T07:39:17.909Z,7.20
2023-01-12T07:42:03.193Z,7.20
2023-01-12T07:44:29.772Z,7.20
2023-01-12T07:46:56.620Z,7.20
2023-01-12T07:49:25.752Z,7.20
2023-01-12T07:51:57.054Z,7.10
2023-01-12T07:54:24.500Z,7.10
2023-01-12T07:56:51.159Z,7.10
2023-01-12T07:59:17.861Z,7.10
2023-01-12T08:01:44.657Z,7.10
2023-01-12T08:04:11.335Z,7.10
2023-01-12T08:06:37.969Z,7.10
2023-01-12T08:09:04.613Z,7.20
2023-01-12T08:11:31.281Z,7.20
2023-01-12T08:13:58.283Z,7.30
2023-01-12T08:16:33.300Z,7.30
2023-01-12T08:19:04.452Z,7.30
2023-01-12T08:21:39.564Z,7.40
2023-01-12T08:24:06.892Z,7.40
2023-01-12T08:26:38.326Z,7.50
2023-01-12T08:29:21.877Z,7.60
2023-01-12T08:31:49.068Z,7.70
2023-01-12T08:34:15.740Z,7.60
2023-01-12T08:36:44.402Z,7.60
2023-01-12T08:39:11.526Z,7.60
2023-01-12T08:41:40.376Z,7.70
2023-01-12T08:44:10.792Z,7.70
2023-01-12T08:46:39.071Z,7.70
2023-01-12T08:49:16.782Z,7.70
2023-01-12T08:51:44.272Z,7.80
2023-01-12T08:54:12.512Z,7.80
2023-01-12T08:56:39.248Z,7.80
2023-01-12T08:59:06.832Z,7.80
2023-01-12T09:01:34.410Z,7.80
2023-01-12T09:04:01.177Z,7.80
2023-01-12T09:06:40.116Z,7.80
2023-01-12T09:09:09.843Z,7.90
2023-01-12T09:11:38.139Z,7.90
2023-01-12T09:14:04.981Z,8.00
2023-01-12T09:16:33.096Z,8.00
2023-01-12T09:19:00.268Z,8.00
2023-01-12T09:21:29.248Z,8.00
2023-01-12T09:23:56.414Z,8.10
2023-01-12T09:26:26.744Z,8.20
2023-01-12T09:28:53.505Z,8.20
2023-01-12T09:31:22.544Z,8.20
2023-01-12T09:33:49.655Z,8.20
2023-01-12T09:36:22.054Z,8.20
2023-01-12T09:38:49.370Z,8.20
2023-01-12T09:41:48.235Z,8.20
2023-01-12T09:44:51.660Z,8.20
2023-01-12T09:47:57.183Z,8.20
2023-01-12T09:50:33.447Z,8.30
2023-01-12T09:53:05.502Z,8.30
2023-01-12T09:55:40.440Z,8.40
2023-01-12T09:58:06.975Z,8.50
2023-01-12T10:00:33.669Z,8.50
2023-01-12T10:03:16.072Z,8.50
2023-01-12T10:05:47.401Z,8.60
2023-01-12T10:08:25.351Z,8.60
2023-01-12T10:11:14.067Z,8.70
2023-01-12T10:14:05.064Z,8.60
2023-01-12T10:16:43.278Z,8.60
2023-01-12T10:19:32.713Z,8.60
2023-01-12T10:22:03.850Z,8.50
2023-01-12T10:24:30.569Z,8.50
2023-01-12T10:27:02.985Z,8.50
2023-01-12T10:29:31.744Z,8.50
2023-01-12T10:31:58.473Z,8.50
2023-01-12T10:34:25.468Z,8.50
2023-01-12T10:36:57.848Z,8.60
2023-01-12T10:39:42.535Z,8.60
2023-01-12T10:42:42.728Z,8.60
2023-01-12T10:45:21.578Z,8.60
2023-01-12T10:47:50.830Z,8.60
2023-01-12T10:50:25.240Z,8.60
2023-01-12T10:53:00.941Z,8.50
2023-01-12T10:55:32.322Z,8.50
2023-01-12T10:57:59.500Z,8.50
2023-01-12T11:00:27.700Z,8.50
2023-01-12T11:02:54.752Z,8.50
2023-01-12T11:05:30.396Z,8.40
2023-01-12T11:07:57.822Z,8.40
2023-01-12T11:10:35.272Z,8.40
2023-01-12T11:13:04.519Z,8.40
2023-01-12T11:15:38.604Z,8.40
2023-01-12T11:18:32.013Z,8.30
2023-01-12T11:21:10.565Z,8.30
2023-01-12T11:23:50.676Z,8.40
2023-01-12T11:26:26.689Z,8.40
2023-01-12T11:28:56.752Z,8.40
2023-01-12T11:31:29.111Z,8.40
2023-01-12T11:34:01.966Z,8.40
2023-01-12T11:36:42.710Z,8.40
2023-01-12T11:39:19.501Z,8.50
2023-01-12T11:42:08.810Z,8.50
2023-01-12T11:44:50.445Z,8.50
2023-01-12T11:47:23.728Z,8.50
2023-01-12T11:49:58.037Z,8.50
2023-01-12T11:52:26.961Z,8.50
2023-01-12T11:54:53.827Z,8.50
2023-01-12T11:57:40.164Z,8.50
2023-01-12T12:00:25.821Z,8.60
2023-01-12T12:03:20.300Z,8.60
2023-01-12T12:06:12.472Z,8.60
2023-01-12T12:09:14.665Z,8.60
2023-01-12T12:12:01.576Z,8.70
2023-01-12T12:15:04.640Z,8.70
2023-01-12T12:18:04.446Z,8.70
2023-01-12T12:20:56.366Z,8.70
2023-01-12T12:23:52.840Z,8.70
2023-01-12T12:26:36.034Z,8.80
2023-01-12T12:29:28.089Z,8.80
2023-01-12T12:32:06.317Z,8.80
2023-01-12T12:34:59.073Z,8.80
2023-01-12T12:37:46.654Z,8.90
2023-01-12T12:40:32.165Z,8.90
2023-01-12T12:43:37.601Z,8.90
2023-01-12T12:46:22.812Z,8.90
2023-01-12T12:49:13.168Z,8.90
2023-01-12T12:51:41.501Z,8.90
2023-01-12T12:54:17.040Z,8.90
2023-01-12T12:56:45.131Z,8.90
2023-01-12T12:59:33.922Z,8.90
2023-01-12T13:02:02.405Z,8.90
2023-01-12T13:05:02.481Z,9.00
2023-01-12T13:07:34.266Z,9.00
2023-01-12T13:10:26.370Z,9.00
2023-01-12T13:13:02.874Z,9.00
2023-01-12T13:15:37.021Z,9.00
2023-01-12T13:18:05.502Z,9.00
2023-01-12T13:20:51.973Z,9.00
2023-01-12T13:23:51.904Z,9.00
2023-01-12T13:26:34.666Z,9.00
2023-01-12T13:29:23.563Z,9.00
2023-01-12T13:31:52.207Z,9.10
2023-01-12T13:34:37.174Z,9.10
2023-01-12T13:37:35.991Z,9.10
2023-01-12T13:40:15.415Z,9.10
2023-01-12T13:43:04.219Z,9.10
2023-01-12T13:45:32.339Z,9.10
2023-01-12T13:47:59.474Z,9.10
2023-01-12T13:50:27.740Z,9.10
2023-01-12T13:52:59.397Z,9.10
2023-01-12T13:55:28.760Z,9.10
2023-01-12T13:58:01.980Z,9.10
2023-01-12T14:00:32.133Z,9.10
2023-01-12T14:02:59.748Z,9.10
2023-01-12T14:05:32.575Z,9.00
2023-01-12T14:08:20.854Z,9.10
2023-01-12T14:11:16.757Z,9.00
2023-01-12T14:14:25.753Z,9.00
2023-01-12T14:17:15.397Z,9.00
2023-01-12T14:19:49.196Z,9.10
2023-01-12T14:22:20.199Z,9.00
2023-01-12T14:24:46.826Z,9.00
2023-01-12T14:27:28.352Z,9.10
2023-01-12T14:30:00.915Z,9.00
2023-01-12T14:32:27.636Z,9.00
2023-01-12T14:34:54.303Z,9.00
2023-01-12T14:37:32.904Z,9.00
2023-01-12T14:39:59.736Z,9.00
2023-01-12T14:42:45.423Z,9.00
2023-01-12T14:45:36.564Z,9.00
2023-01-12T14:48:20.171Z,9.00
2023-01-12T14:51:09.712Z,8.90
2023-01-12T14:53:42.305Z,9.00
2023-01-12T14:56:34.006Z,9.00
2023-01-12T14:59:28.662Z,9.00
2023-01-12T15:02:46.471Z,8.90
2023-01-12T15:05:20.398Z,9.00
2023-01-12T15:08:01.210Z,9.00
2023-01-12T15:10:38.274Z,9.00
2023-01-12T15:13:28.452Z,9.00
2023-01-12T15:16:15.322Z,9.00
2023-01-12T15:19:01.349Z,9.00
2023-01-12T15:21:47.471Z,9.10
2023-01-12T15:24:45.588Z,9.10
2023-01-12T15:27:22.889Z,9.10
2023-01-12T15:29:49.564Z,9.10
2023-01-12T15:32:47.312Z,9.10
2023-01-12T15:35:26.499Z,9.20
2023-01-12T15:37:55.442Z,9.20
2023-01-12T15:40:24.412Z,9.20
2023-01-12T15:42:53.313Z,9.20
2023-01-12T15:45:44.561Z,9.20
2023-01-12T15:48:11.643Z,9.20
2023-01-12T15:50:40.582Z,9.30
2023-01-12T15:53:16.755Z,9.30
2023-01-12T15:55:43.533Z,9.30
2023-01-12T15:58:10.170Z,9.20
2023-01-12T16:00:37.442Z,9.30
2023-01-12T16:03:04.504Z,9.30
2023-01-12T16:05:31.213Z,9.30
2023-01-12T16:07:57.954Z,9.30
2023-01-12T16:10:24.695Z,9.20
2023-01-12T16:12:51.406Z,9.20
2023-01-12T16:15:20.977Z,9.20
2023-01-12T16:17:48.400Z,9.20
2023-01-12T16:20:16.954Z,9.20
2023-01-12T16:22:44.313Z,9.10
2023-01-12T16:25:11.410Z,9.10
2023-01-12T16:27:39.163Z,9.10
2023-01-12T16:30:11.955Z,9.10
2023-01-12T16:32:38.635Z,9.10
2023-01-12T16:35:05.499Z,9.20
2023-01-12T16:37:33.293Z,9.20
2023-01-12T16:40:00.730Z,9.20
2023-01-12T16:42:27.809Z,9.10
2023-01-12T16:44:54.529Z,9.10
2023-01-12T16:47:22.633Z,9.10
2023-01-12T16:49:52.166Z,9.10
2023-01-12T16:52:20.682Z,9.10
2023-01-12T16:54:47.429Z,9.10
2023-01-12T16:57:18.226Z,9.10
2023-01-12T16:59:45.190Z,9.10
2023-01-12T17:02:15.275Z,9.10
2023-01-12T17:04:43.497Z,9.20
2023-01-12T17:07:10.865Z,9.20
2023-01-12T17:09:38.896Z,9.10
2023-01-12T17:12:06.219Z,9.20
2023-01-12T17:14:34.638Z,9.20
2023-01-12T17:17:08.202Z,9.20
2023-01-12T17:19:36.655Z,9.10
2023-01-12T17:22:06.580Z,9.10
2023-01-12T17:24:35.008Z,9.10
2023-01-12T17:27:01.779Z,9.10
2023-01-12T17:29:28.538Z,9.20
2023-01-12T17:32:03.238Z,9.10
2023-01-12T17:34:32.535Z,9.10
2023-01-12T17:37:03.931Z,9.20
2023-01-12T17:39:31.355Z,9.20
2023-01-12T17:42:16.544Z,9.10
2023-01-12T17:44:43.413Z,9.10
2023-01-12T17:47:10.521Z,9.10
2023-01-12T17:49:37.451Z,9.10
2023-01-12T17:52:04.733Z,9.10
2023-01-12T17:54:31.460Z,9.10
2023-01-12T17:56:58.185Z,9.10
2023-01-12T17:59:24.992Z,9.10
2023-01-12T18:01:52.104Z,9.10
2023-01-12T18:04:19.034Z,9.10
2023-01-12T18:06:46.098Z,9.20
2023-01-12T18:09:13.637Z,9.10
2023-01-12T18:11:41.061Z,9.20
2023-01-12T18:14:08.802Z,9.10
2023-01-12T18:16:35.801Z,9.10
2023-01-12T18:19:05.738Z,9.10
2023-01-12T18:21:33.386Z,9.20
2023-01-12T18:24:00.751Z,9.10
2023-01-12T18:26:30.423Z,9.10
2023-01-12T18:28:58.185Z,9.10
2023-01-12T18:31:28.416Z,9.10
2023-01-12T18:34:05.768Z,9.10
2023-01-12T18:36:37.727Z,9.10
2023-01-12T18:39:35.932Z,9.10
2023-01-12T18:42:21.256Z,9.10
2023-01-12T18:44:48.595Z,9.10
2023-01-12T18:47:34.879Z,9.10
2023-01-12T18:50:21.499Z,9.10
2023-01-12T18:53:08.154Z,9.10
2023-01-12T18:55:41.093Z,9.10
2023-01-12T18:58:07.774Z,9.10
2023-01-12T19:00:34.602Z,9.10
2023-01-12T19:03:01.441Z,9.10
2023-01-12T19:05:31.185Z,9.20
2023-01-12T19:07:57.785Z,9.20
2023-01-12T19:10:25.718Z,9.20
2023-01-12T19:13:12.343Z,9.20
2023-01-12T19:15:58.487Z,9.20
2023-01-12T19:18:25.456Z,9.20
2023-01-12T19:21:12.118Z,9.20
2023-01-12T19:23:57.922Z,9.20
2023-01-12T19:26:50.726Z,9.20
2023-01-12T19:29:19.868Z,9.20
2023-01-12T19:31:46.492Z,9.20
2023-01-12T19:34:13.164Z,9.20
2023-01-12T19:36:39.776Z,9.20
2023-01-12T19:39:07.537Z,9.20
2023-01-12T19:41:54.261Z,9.20
2023-01-12T19:44:20.947Z,9.10
2023-01-12T19:46:47.715Z,9.20
2023-01-12T19:49:16.717Z,9.20
2023-01-12T19:51:48.064Z,9.20
2023-01-12T19:54:14.749Z,9.20
2023-01-12T19:56:41.376Z,9.20
2023-01-12T19:59:08.025Z,9.10
2023-01-12T20:01:34.778Z,9.10
2023-01-12T20:04:01.507Z,9.10
2023-01-12T20:06:28.802Z,9.10
2023-01-12T20:08:55.462Z,9.10
2023-01-12T20:11:22.407Z,9.00
2023-01-12T20:13:49.049Z,9.00
2023-01-12T20:16:16.218Z,9.10
2023-01-12T20:18:43.501Z,9.10
2023-01-12T20:21:12.293Z,9.10
2023-01-12T20:23:39.674Z,9.10
2023-01-12T20:26:11.154Z,9.10
2023-01-12T20:28:38.153Z,9.10
2023-01-12T20:31:10.118Z,9.10
2023-01-12T20:33:37.040Z,9.10
2023-01-12T20:36:11.265Z,9.00
2023-01-12T20:38:40.579Z,9.10
2023-01-12T20:41:08.173Z,9.10
2023-01-12T20:43:34.834Z,9.10
2023-01-12T20:46:01.997Z,9.00
2023-01-12T20:48:28.744Z,9.00
2023-01-12T20:50:55.473Z,9.00
2023-01-12T20:53:23.689Z,9.00
2023-01-12T20:55:50.913Z,9.00
2023-01-12T20:58:18.088Z,9.00
2023-01-12T21:00:45.418Z,9.00
2023-01-12T21:03:12.225Z,9.00
2023-01-12T21:05:44.112Z,9.00
2023-01-12T21:08:10.902Z,9.00
2023-01-12T21:10:39.163Z,9.00
2023-01-12T21:13:07.082Z,9.00
2023-01-12T21:15:34.177Z,9.00
2023-01-12T21:18:00.869Z,9.00
2023-01-12T21:20:27.989Z,9.00
2023-01-12T21:22:54.771Z,9.10
2023-01-12T21:25:27.727Z,9.00
2023-01-12T21:27:55.443Z,9.00
2023-01-12T21:30:22.310Z,9.00
2023-01-12T21:32:49.050Z,9.10
2023-01-12T21:35:16.206Z,9.00
2023-01-12T21:37:42.846Z,9.00
2023-01-12T21:40:10.251Z,9.10
2023-01-12T21:42:55.351Z,9.10
2023-01-12T21:45:26.624Z,9.20
2023-01-12T21:47:55.225Z,9.10
2023-01-12T21:50:22.730Z,9.10
2023-01-12T21:52:49.367Z,9.10
2023-01-12T21:55:16.121Z,9.00
2023-01-12T21:57:43.877Z,9.00
2023-01-12T22:00:12.211Z,9.00
2023-01-12T22:02:38.868Z,8.90
2023-01-12T22:05:05.731Z,9.00
2023-01-12T22:07:32.797Z,9.00
2023-01-12T22:10:18.798Z,9.00
2023-01-12T22:12:47.464Z,8.90
2023-01-12T22:15:14.338Z,8.90
2023-01-12T22:17:41.742Z,8.90
2023-01-12T22:20:09.988Z,8.90
2023-01-12T22:22:41.022Z,8.90
2023-01-12T22:25:09.525Z,8.80
2023-01-12T22:27:36.705Z,8.90
2023-01-12T22:30:06.160Z,8.80
2023-01-12T22:32:33.039Z,8.90
2023-01-12T22:34:59.770Z,8.90
2023-01-12T22:37:30.380Z,8.90
2023-01-12T22:39:57.075Z,8.90
2023-01-12T22:42:43.783Z,9.00
2023-01-12T22:45:10.899Z,8.90
2023-01-12T22:47:47.555Z,9.00
2023-01-12T22:50:15.199Z,9.00
2023-01-12T22:52:41.836Z,9.00
2023-01-12T22:55:09.310Z,9.00
2023-01-12T22:57:35.906Z,9.00
2023-01-12T23:00:02.948Z,9.00
2023-01-12T23:02:48.460Z,9.10
2023-01-12T23:05:15.221Z,9.00
2023-01-12T23:07:41.848Z,9.00
2023-01-12T23:10:09.267Z,9.00
2023-01-12T23:12:35.913Z,9.00
2023-01-12T23:15:02.605Z,9.00
2023-01-12T23:17:30.357Z,9.10
2023-01-12T23:19:56.925Z,9.00
2023-01-12T23:22:23.581Z,9.00
2023-01-12T23:24:50.425Z,9.00
2023-01-12T23:27:17.013Z,9.00
2023-01-12T23:29:43.642Z,9.00
2023-01-12T23:32:10.264Z,9.00
2023-01-12T23:34:36.895Z,9.00
2023-01-12T23:37:03.557Z,8.90
2023-01-12T23:39:30.214Z,9.00
2023-01-12T23:41:56.928Z,9.00
2023-01-12T23:44:23.515Z,9.00
2023-01-12T23:46:50.139Z,9.00
2023-01-12T23:49:17.523Z,9.10
2023-01-12T23:51:44.142Z,9.00
2023-01-12T23:54:16.782Z,9.10
2023-01-12T23:56:43.830Z,9.10
2023-01-12T23:59:10.782Z,9.10
